createdAt,value
2023-01-09T16:38:52.810Z,978.48
2023-01-09T16:39:52.709Z,978.46
2023-01-09T16:40:52.617Z,978.47
2023-01-09T16:41:52.529Z,978.48
2023-01-09T16:42:52.453Z,978.53
2023-01-09T16:43:52.367Z,978.48
2023-01-09T16:44:52.285Z,978.44
2023-01-09T16:45:52.262Z,978.45
2023-01-09T16:46:52.121Z,978.49
2023-01-09T16:47:52.029Z,978.47
2023-01-09T16:48:52.047Z,978.60
2023-01-09T16:49:51.862Z,978.55
2023-01-09T16:50:51.782Z,978.57
2023-01-09T16:51:51.704Z,978.56
2023-01-09T16:52:51.617Z,978.64
2023-01-09T16:53:51.529Z,978.58
2023-01-09T16:54:51.470Z,978.59
2023-01-09T16:55:51.361Z,978.59
2023-01-09T16:56:51.276Z,978.62
2023-01-09T16:57:51.193Z,978.65
2023-01-09T16:58:51.114Z,978.65
2023-01-09T16:59:51.029Z,978.68
2023-01-09T17:00:51.035Z,978.61
2023-01-09T17:01:50.865Z,978.72
2023-01-09T17:02:50.828Z,978.72
2023-01-09T17:03:50.709Z,978.72
2023-01-09T17:04:50.615Z,978.74
2023-01-09T17:05:50.541Z,978.79
2023-01-09T17:06:50.441Z,978.76
2023-01-09T17:07:50.357Z,978.82
2023-01-09T17:08:50.274Z,978.86
2023-01-09T17:09:50.188Z,978.91
2023-01-09T17:10:50.128Z,978.90
2023-01-09T17:11:50.032Z,978.92
2023-01-09T17:12:49.950Z,978.91
2023-01-09T17:13:49.856Z,978.95
2023-01-09T17:14:49.773Z,979.02
2023-01-09T17:15:49.692Z,978.98
2023-01-09T17:16:49.681Z,979.04
2023-01-09T17:17:49.517Z,979.00
2023-01-09T17:18:49.438Z,979.02
2023-01-09T17:19:49.349Z,979.05
2023-01-09T17:20:49.468Z,979.09
2023-01-09T17:21:49.218Z,979.10
2023-01-09T17:22:49.106Z,979.13
2023-01-09T17:23:49.017Z,979.10
2023-01-09T17:24:48.934Z,979.05
2023-01-09T17:25:48.849Z,979.05
2023-01-09T17:26:48.786Z,979.06
2023-01-09T17:27:48.682Z,979.06
2023-01-09T17:28:48.616Z,979.09
2023-01-09T17:29:48.521Z,979.15
2023-01-09T17:30:48.432Z,979.16
2023-01-09T17:31:48.699Z,979.13
2023-01-09T17:32:48.267Z,979.15
2023-01-09T17:33:48.213Z,979.20
2023-01-09T17:34:48.097Z,979.22
2023-01-09T17:35:48.010Z,979.19
2023-01-09T17:36:48.094Z,979.21
2023-01-09T17:37:47.894Z,979.30
2023-01-09T17:38:47.761Z,979.34
2023-01-09T17:39:47.679Z,979.39
2023-01-09T17:40:47.595Z,979.39
2023-01-09T17:41:47.513Z,979.40
2023-01-09T17:42:47.695Z,979.41
2023-01-09T17:43:47.390Z,979.45
2023-01-09T17:44:47.260Z,979.45
2023-01-09T17:45:47.195Z,979.47
2023-01-09T17:46:47.089Z,979.46
2023-01-09T17:47:47.009Z,979.46
2023-01-09T17:48:46.922Z,979.51
2023-01-09T17:49:46.839Z,979.54
2023-01-09T17:50:46.756Z,979.58
2023-01-09T17:51:46.677Z,979.62
2023-01-09T17:52:46.586Z,979.60
2023-01-09T17:53:46.503Z,979.62
2023-01-09T17:54:46.419Z,979.65
2023-01-09T17:55:46.344Z,979.65
2023-01-09T17:56:46.275Z,979.65
2023-01-09T17:57:46.165Z,979.67
2023-01-09T17:58:46.504Z,979.74
2023-01-09T17:59:46.000Z,979.75
2023-01-09T18:00:45.915Z,979.73
2023-01-09T18:01:45.872Z,979.83
2023-01-09T18:02:45.770Z,979.76
2023-01-09T18:03:45.664Z,979.86
2023-01-09T18:04:45.589Z,979.89
2023-01-09T18:05:45.745Z,979.89
2023-01-09T18:06:45.415Z,979.95
2023-01-09T18:07:45.334Z,979.96
2023-01-09T18:08:45.255Z,980.07
2023-01-09T18:09:45.162Z,980.02
2023-01-09T18:10:45.073Z,980.00
2023-01-09T18:11:44.999Z,979.99
2023-01-09T18:12:44.906Z,980.05
2023-01-09T18:13:44.818Z,980.09
2023-01-09T18:14:44.763Z,980.14
2023-01-09T18:15:44.652Z,980.18
2023-01-09T18:16:44.709Z,980.14
2023-01-09T18:17:44.502Z,980.13
2023-01-09T18:18:44.401Z,980.15
2023-01-09T18:19:44.316Z,980.14
2023-01-09T18:20:44.237Z,980.22
2023-01-09T18:21:44.146Z,980.23
2023-01-09T18:22:44.064Z,980.35
2023-01-09T18:23:43.980Z,980.36
2023-01-09T18:24:43.894Z,980.38
2023-01-09T18:25:43.811Z,980.41
2023-01-09T18:26:43.723Z,980.52
2023-01-09T18:27:43.643Z,980.45
2023-01-09T18:28:43.605Z,980.59
2023-01-09T18:29:43.467Z,980.59
2023-01-09T18:30:43.410Z,980.64
2023-01-09T18:31:43.394Z,980.63
2023-01-09T18:32:43.222Z,980.67
2023-01-09T18:33:43.131Z,980.65
2023-01-09T18:34:43.051Z,980.64
2023-01-09T18:35:42.961Z,980.64
2023-01-09T18:36:42.893Z,980.69
2023-01-09T18:37:42.798Z,980.70
2023-01-09T18:38:42.709Z,980.77
2023-01-09T18:39:42.621Z,980.75
2023-01-09T18:40:42.537Z,980.83
2023-01-09T18:41:42.451Z,980.84
2023-01-09T18:42:42.717Z,980.85
2023-01-09T18:43:42.282Z,980.91
2023-01-09T18:44:42.205Z,980.94
2023-01-09T18:45:42.130Z,980.88
2023-01-09T18:46:42.075Z,980.91
2023-01-09T18:47:41.949Z,980.93
2023-01-09T18:48:41.859Z,980.91
2023-01-09T18:49:41.776Z,981.02
2023-01-09T18:50:41.689Z,981.00
2023-01-09T18:51:41.604Z,981.03
2023-01-09T18:52:41.519Z,981.04
2023-01-09T18:53:41.445Z,981.09
2023-01-09T18:54:41.352Z,981.03
2023-01-09T18:55:41.265Z,981.05
2023-01-09T18:56:41.182Z,981.06
2023-01-09T18:57:41.092Z,981.06
2023-01-09T18:58:41.009Z,981.08
2023-01-09T18:59:40.925Z,981.18
2023-01-09T19:00:40.977Z,981.11
2023-01-09T19:01:40.751Z,981.11
2023-01-09T19:02:40.690Z,981.18
2023-01-09T19:03:40.672Z,981.16
2023-01-09T19:04:40.501Z,981.21
2023-01-09T19:05:40.414Z,981.23
2023-01-09T19:06:40.332Z,981.26
2023-01-09T19:07:40.246Z,981.28
2023-01-09T19:08:40.177Z,981.31
2023-01-09T19:09:40.226Z,981.28
2023-01-09T19:14:53.767Z,981.20
2023-01-09T19:15:53.673Z,981.28
2023-01-09T19:16:53.628Z,981.25
2023-01-09T19:17:53.623Z,981.29
2023-01-09T19:18:53.436Z,981.35
2023-01-09T19:19:53.337Z,981.35
2023-01-09T19:20:53.254Z,981.38
2023-01-09T19:21:53.169Z,981.41
2023-01-09T19:22:53.084Z,981.41
2023-01-09T19:23:53.016Z,981.45
2023-01-09T19:24:53.113Z,981.44
2023-01-09T19:25:52.827Z,981.48
2023-01-09T19:26:52.744Z,981.50
2023-01-09T19:27:52.658Z,981.55
2023-01-09T19:28:52.577Z,981.55
2023-01-09T19:29:52.489Z,981.57
2023-01-09T19:30:52.407Z,981.63
2023-01-09T19:31:52.419Z,981.69
2023-01-09T19:32:52.260Z,981.64
2023-01-09T19:33:52.166Z,981.73
2023-01-09T19:34:52.064Z,981.74
2023-01-09T19:35:51.981Z,981.75
2023-01-09T19:36:51.980Z,981.83
2023-01-09T19:37:51.814Z,981.83
2023-01-09T19:38:51.728Z,981.82
2023-01-09T19:39:51.643Z,981.78
2023-01-09T19:40:51.570Z,981.80
2023-01-09T19:41:51.490Z,981.78
2023-01-09T19:42:51.391Z,981.85
2023-01-09T19:43:51.315Z,981.86
2023-01-09T19:44:51.232Z,981.84
2023-01-09T19:45:51.179Z,981.87
2023-01-09T19:46:51.065Z,981.88
2023-01-09T19:47:50.970Z,981.85
2023-01-09T19:48:50.891Z,981.82
2023-01-09T19:49:50.825Z,981.91
2023-01-09T19:50:50.753Z,981.94
2023-01-09T19:51:50.635Z,981.98
2023-01-09T19:52:50.544Z,981.99
2023-01-09T19:53:50.464Z,982.00
2023-01-09T19:54:50.375Z,982.03
2023-01-09T19:55:50.299Z,982.01
2023-01-09T19:56:50.213Z,982.02
2023-01-09T19:57:50.168Z,981.99
2023-01-09T19:58:50.040Z,981.99
2023-01-09T19:59:49.952Z,982.04
2023-01-09T20:00:49.940Z,982.08
2023-01-09T20:01:49.808Z,982.06
2023-01-09T20:02:49.698Z,982.10
2023-01-09T20:03:49.614Z,982.10
2023-01-09T20:04:49.730Z,982.11
2023-01-09T20:05:49.465Z,982.09
2023-01-09T20:06:49.366Z,982.12
2023-01-09T20:07:49.281Z,982.10
2023-01-09T20:08:49.200Z,982.07
2023-01-09T20:09:49.121Z,982.09
2023-01-09T20:10:49.026Z,982.13
2023-01-09T20:11:48.936Z,982.19
2023-01-09T20:12:48.855Z,982.15
2023-01-09T20:13:48.767Z,982.21
2023-01-09T20:14:48.833Z,982.19
2023-01-09T20:15:48.878Z,982.23
2023-01-09T20:16:48.674Z,982.25
2023-01-09T20:17:48.430Z,982.21
2023-01-09T20:18:48.350Z,982.25
2023-01-09T20:19:48.261Z,982.26
2023-01-09T20:20:48.227Z,982.34
2023-01-09T20:21:48.129Z,982.28
2023-01-09T20:22:48.012Z,982.34
2023-01-09T20:23:47.927Z,982.36
2023-01-09T20:24:47.842Z,982.43
2023-01-09T20:25:47.757Z,982.46
2023-01-09T20:26:47.675Z,982.48
2023-01-09T20:27:47.587Z,982.53
2023-01-09T20:28:47.513Z,982.57
2023-01-09T20:29:47.419Z,982.50
2023-01-09T20:30:47.336Z,982.46
2023-01-09T20:31:47.328Z,982.46
2023-01-09T20:32:47.264Z,982.48
2023-01-09T20:33:47.079Z,982.49
2023-01-09T20:34:46.997Z,982.49
2023-01-09T20:36:49.475Z,982.52
2023-01-09T20:37:49.340Z,982.53
2023-01-09T20:41:15.155Z,982.53
2023-01-09T20:42:14.766Z,982.59
2023-01-09T20:43:14.683Z,982.56
2023-01-09T20:44:14.614Z,982.55
2023-01-09T20:45:14.517Z,982.61
2023-01-09T20:47:01.908Z,982.61
2023-01-09T20:48:01.826Z,982.62
2023-01-09T20:49:01.738Z,982.59
2023-01-09T20:50:01.654Z,982.53
2023-01-09T20:51:01.571Z,982.58
2023-01-09T20:52:01.496Z,982.58
2023-01-09T20:53:01.431Z,982.58
2023-01-09T20:55:28.968Z,982.67
2023-01-09T20:56:28.883Z,982.62
2023-01-09T20:57:28.806Z,982.69
2023-01-09T20:58:28.857Z,982.72
2023-01-09T20:59:28.635Z,982.77
2023-01-09T21:00:28.547Z,982.81
2023-01-09T21:01:28.462Z,982.79
2023-01-09T21:02:28.407Z,982.81
2023-01-09T21:03:28.293Z,982.81
2023-01-09T21:04:28.233Z,982.82
2023-01-09T21:05:28.128Z,982.81
2023-01-09T21:06:28.082Z,982.80
2023-01-09T21:07:27.953Z,982.87
2023-01-09T21:08:27.891Z,982.82
2023-01-09T21:09:27.784Z,982.87
2023-01-09T21:10:27.705Z,982.91
2023-01-09T21:11:27.668Z,982.89
2023-01-09T21:12:27.612Z,982.95
2023-01-09T21:13:27.448Z,982.90
2023-01-09T21:14:27.446Z,982.92
2023-01-09T21:15:27.281Z,982.90
2023-01-09T21:16:27.225Z,982.87
2023-01-09T21:17:27.257Z,982.91
2023-01-09T21:18:27.022Z,982.91
2023-01-09T21:19:26.950Z,982.96
2023-01-09T21:20:26.853Z,982.97
2023-01-09T21:21:26.768Z,982.98
2023-01-09T21:22:26.687Z,983.03
2023-01-09T21:23:26.749Z,983.05
2023-01-09T21:24:26.533Z,983.08
2023-01-09T21:25:26.440Z,983.07
2023-01-09T21:26:26.344Z,983.06
2023-01-09T21:27:26.271Z,983.06
2023-01-09T21:28:26.179Z,983.05
2023-01-09T21:29:26.090Z,983.06
2023-01-09T21:30:26.061Z,983.08
2023-01-09T21:31:25.990Z,983.16
2023-01-09T21:32:25.835Z,983.21
2023-01-09T21:33:25.757Z,983.22
2023-01-09T21:34:25.665Z,983.28
2023-01-09T21:35:25.583Z,983.34
2023-01-09T21:36:25.545Z,983.27
2023-01-09T21:37:25.412Z,983.33
2023-01-09T21:38:25.325Z,983.35
2023-01-09T21:39:25.244Z,983.38
2023-01-09T21:40:25.681Z,983.38
2023-01-09T21:42:17.608Z,983.43
2023-01-09T21:43:17.470Z,983.44
2023-01-09T21:44:17.385Z,983.49
2023-01-09T21:45:17.299Z,983.47
2023-01-09T21:46:17.216Z,983.55
2023-01-09T21:47:17.281Z,983.51
2023-01-09T21:48:17.052Z,983.53
2023-01-09T21:49:16.962Z,983.48
2023-01-09T21:50:17.545Z,983.50
2023-01-09T21:51:16.792Z,983.49
2023-01-09T21:52:16.708Z,983.43
2023-01-09T21:53:16.627Z,983.48
2023-01-09T21:54:16.555Z,983.48
2023-01-09T21:55:16.477Z,983.42
2023-01-09T21:56:16.390Z,983.49
2023-01-09T21:57:16.288Z,983.44
2023-01-09T21:58:16.200Z,983.52
2023-01-09T21:59:16.116Z,983.50
2023-01-09T22:00:16.037Z,983.53
2023-01-09T22:01:16.134Z,983.52
2023-01-09T22:02:15.961Z,983.51
2023-01-09T22:03:15.777Z,983.57
2023-01-09T22:04:15.850Z,983.56
2023-01-09T22:05:15.959Z,983.61
2023-01-09T22:06:15.524Z,983.56
2023-01-09T22:07:15.439Z,983.57
2023-01-09T22:08:15.356Z,983.63
2023-01-09T22:09:15.277Z,983.69
2023-01-09T22:10:15.187Z,983.58
2023-01-09T22:11:16.242Z,983.56
2023-01-09T22:12:15.060Z,983.64
2023-01-09T22:13:14.935Z,983.69
2023-01-09T22:14:14.847Z,983.75
2023-01-09T22:15:14.765Z,983.73
2023-01-09T22:16:14.713Z,983.78
2023-01-09T22:17:14.595Z,983.84
2023-01-09T22:18:14.524Z,983.86
2023-01-09T22:19:14.434Z,983.81
2023-01-09T22:20:14.340Z,983.90
2023-01-09T22:21:14.255Z,983.97
2023-01-09T22:22:14.188Z,984.02
2023-01-09T22:23:14.091Z,984.00
2023-01-09T22:24:14.004Z,983.97
2023-01-09T22:25:13.916Z,983.98
2023-01-09T22:26:13.840Z,983.99
2023-01-09T22:27:13.753Z,984.03
2023-01-09T22:28:13.689Z,984.02
2023-01-09T22:29:13.579Z,984.02
2023-01-09T22:30:13.494Z,984.10
2023-01-09T22:31:13.495Z,984.09
2023-01-09T22:32:13.332Z,984.17
2023-01-09T22:33:13.260Z,984.14
2023-01-09T22:34:13.155Z,984.19
2023-01-09T22:35:13.074Z,984.20
2023-01-09T22:36:12.987Z,984.19
2023-01-09T22:37:12.914Z,984.16
2023-01-09T22:38:12.818Z,984.23
2023-01-09T22:39:12.732Z,984.20
2023-01-09T22:40:12.651Z,984.34
2023-01-09T22:41:12.562Z,984.24
2023-01-09T22:42:12.502Z,984.29
2023-01-09T22:43:12.397Z,984.26
2023-01-09T22:44:12.351Z,984.30
2023-01-09T22:45:12.240Z,984.36
2023-01-09T22:46:12.168Z,984.37
2023-01-09T22:47:12.059Z,984.32
2023-01-09T22:48:11.981Z,984.38
2023-01-09T22:49:11.920Z,984.36
2023-01-09T22:50:11.816Z,984.43
2023-01-09T22:51:11.717Z,984.41
2023-01-09T22:52:11.635Z,984.38
2023-01-09T22:53:11.552Z,984.42
2023-01-09T22:54:11.487Z,984.45
2023-01-09T22:55:11.579Z,984.47
2023-01-09T22:56:11.296Z,984.48
2023-01-09T22:57:11.227Z,984.53
2023-01-09T22:58:11.129Z,984.52
2023-01-09T22:59:11.042Z,984.45
2023-01-09T23:00:10.979Z,984.54
2023-01-09T23:01:10.881Z,984.56
2023-01-09T23:02:10.933Z,984.56
2023-01-09T23:03:10.793Z,984.55
2023-01-09T23:04:10.620Z,984.62
2023-01-09T23:05:10.549Z,984.62
2023-01-09T23:06:10.502Z,984.58
2023-01-09T23:07:10.368Z,984.65
2023-01-09T23:08:10.281Z,984.66
2023-01-09T23:09:10.199Z,984.61
2023-01-09T23:10:10.129Z,984.65
2023-01-09T23:11:10.285Z,984.70
2023-01-09T23:12:09.944Z,984.65
2023-01-09T23:13:09.863Z,984.75
2023-01-09T23:14:09.776Z,984.75
2023-01-09T23:15:09.700Z,984.72
2023-01-09T23:16:09.628Z,984.72
2023-01-09T23:17:09.525Z,984.76
2023-01-09T23:18:09.591Z,984.75
2023-01-09T23:19:09.365Z,984.84
2023-01-09T23:20:09.272Z,984.87
2023-01-09T23:21:09.192Z,984.96
2023-01-09T23:22:09.110Z,984.95
2023-01-09T23:23:09.020Z,985.00
2023-01-09T23:24:08.937Z,985.00
2023-01-09T23:25:08.856Z,985.05
2023-01-09T23:26:08.821Z,985.02
2023-01-09T23:27:08.720Z,985.07
2023-01-09T23:28:08.602Z,985.10
2023-01-09T23:29:08.515Z,985.08
2023-01-09T23:30:08.435Z,985.09
2023-01-09T23:31:08.453Z,985.15
2023-01-09T23:32:08.325Z,985.13
2023-01-09T23:33:08.198Z,985.13
2023-01-09T23:34:08.177Z,985.11
2023-01-09T23:35:08.028Z,985.16
2023-01-09T23:36:07.931Z,985.18
2023-01-09T23:37:07.970Z,985.14
2023-01-09T23:38:07.762Z,985.21
2023-01-09T23:39:07.678Z,985.19
2023-01-09T23:40:07.607Z,985.19
2023-01-09T23:41:07.515Z,985.22
2023-01-09T23:42:07.638Z,985.22
2023-01-09T23:43:07.343Z,985.25
2023-01-09T23:44:07.265Z,985.26
2023-01-09T23:45:07.175Z,985.24
2023-01-09T23:46:07.245Z,985.28
2023-01-09T23:47:07.028Z,985.29
2023-01-09T23:48:06.950Z,985.31
2023-01-09T23:49:06.841Z,985.35
2023-01-09T23:50:06.767Z,985.38
2023-01-09T23:51:06.672Z,985.36
2023-01-09T23:52:06.600Z,985.36
2023-01-09T23:53:06.506Z,985.40
2023-01-09T23:54:06.425Z,985.42
2023-01-09T23:55:06.338Z,985.40
2023-01-09T23:56:06.261Z,985.46
2023-01-09T23:57:06.166Z,985.44
2023-01-09T23:58:06.085Z,985.42
2023-01-09T23:59:06.003Z,985.50
